< < Back
Terminal Aerodrome Forecast


Current Version              Previous Versions:   1  2  3  4  5  6  7  8  9  

Terminal Aerodrome Forecast

541
FTUS44 KOHX 091134
TAFCSV
TAF
KCSV 091134Z 0912/1012 30007KT P6SM -SN SCT015 BKN025
      TEMPO 0916/0920 3SM -SN BKN015
     FM092000 30009KT P6SM -SN BKN025
      TEMPO 0920/0924 4SM -SN BR=

Latest METAR

459
SAUS70 KWBC 091300 RRI
MTRCSV
METAR KCSV 091253Z AUTO 28006KT 7SM -SN OVC022 M07/M10 A2978 RMK AO2
SLP101 P0000 T10671100


USA.gov is the U.S. government's official web portal to all federal, state and local government web resources and services.